الصفحة الرئيسية
METAR-TAF:

METAR-TAF

مطار :

نيروبي, كينيا

دائرة عرض: 01-19S, خط طول: 036-49E, ارتفاع: 1683 متر

مراقبة الطقس الحالي

تاريخ ووقت الإصدار 52 دقيقة قبل الساعة 16:00UTC
ريح 8 عقدة من الجنوب/الجنوب الشرقي
درجة الحرارة 18°درجة مئوية
الرطوبة 68%
ضغط 1025 hPa
الرؤية 10 كم أو أكثر
غيوم مفككة على ارتفاع 2000 قدم

METAR: HKNW 211600Z 15008KT 9999 BKN020 18/12 Q1025

زمن: 19:52 (16:52 UTC)

توقعات

تاريخ ووقت الإصدار 5ساعات و 52 دقيقة قبل الساعة 11:00UTC
التوقعات صالحة من21 الساعة 12 UTC إلى 22 الساعة 12 UTC
ريح 10 عقدة من الجنوب الشرقي
الرؤية 10 كم أو أكثر
غيوم مفككة على ارتفاع 2500 قدم
أصبح
من 21 الساعة 20 UTC إلى 21 الساعة 23 UTC
ريح 2 عقدةمن اتجاهات متغيرة
غيوم مفككة على ارتفاع 1400 قدم
أصبح
من 22 الساعة 08 UTC إلى 22 الساعة 11 UTC
ريح 10 عقدة من الجنوب/الجنوب الشرقي
غيوم مفككة على ارتفاع 2300 قدم

TAF: HKNW 211100Z 2112/2212 13010KT 9999 BKN025 BECMG 2120/2123 VRB02KT BKN014 BECMG 2208/2211 15010KT BKN023

أرصاد الطقس والتوقعات من أكثر من 4000 مطار (تقارير الطقس للمطار METAR والتنبؤ بالطقس بالمطارTAF).

المحطات المتاحة هي النقط الصفراء والحمراء على الخريطة.

حرك المؤشر فوق النقطة لمعرفة اسم المحطة.

ثم انقر لمعرفة أرصاد وتوقعات الطقس.

لتغيير الخارطة: اضغط على الأزرار الخضراء مع رمز الصليب الأسود للتكبير. على الزر الأخضر مع شرطة للتصغير، أو على الأسهم الخضراء للخرائط المجاورة.


METAR-TAF: